Terminal Aerodrome Forecast
Issued by NWS Topeka, KS

Home | Current Version | Previous Version | Text Only | Print | Product List | Glossary Off
Versions: 1 2 3 4 5 6 7 8 9 10 11 12 13 14

000
FTUS43 KTOP 271700
TAFTOP
TAF
KTOP 271736Z 2718/2818 16009KT P6SM FEW070
     FM280900 VRB03KT 4SM MIFG SKC
     FM281400 17005KT P6SM FEW080=

USA.gov is the U.S. government's official web portal to all federal, state and local government web resources and services.